Cfl Performer — PHLY — position and weather

sailwx.info

Track history (hours):
 
Tides and Currents Weather Stations Pressure Air Temp Water Temp Dewpoint Dewpoint Depression Visibility Wind Speed Wind Dir Waves Ship Positions

Cfl Performer

Last reported at 2017-Feb-27 06:33 UTC. Time now 2017-Feb-27 06:51 UTC.
Position N 68°58' E 033°03'.

Length 117 m; draft 6.1 m.

Type: Cargo ship. MMSI: 244989000.

Date/timePositionNaut miles runAvg speedWind from/ knotsBaromVisibWave heightAir tempDewpointWater temp
2017-Feb-27 06:33N 68°58' E 033°03'0 0.0
2017-Feb-27 05:33N 68°58' E 033°03'0 0.0
2017-Feb-27 04:33N 68°58' E 033°03'0 0.0
2017-Feb-27 03:33N 68°58' E 033°03'0 0.0
2017-Feb-27 02:33N 68°58' E 033°03'0 0.0
2017-Feb-27 01:33N 68°58' E 033°03'0 0.0
2017-Feb-27 00:33N 68°58' E 033°03'0 0.0
2017-Feb-26 23:33N 68°58' E 033°03'0 0.0
2017-Feb-26 22:33N 68°58' E 033°03'0 0.0
2017-Feb-26 21:33N 68°58' E 033°03'0 0.0
2017-Feb-26 20:33N 68°58' E 033°03'0 0.0
2017-Feb-26 19:33N 68°58' E 033°03'0 0.0
2017-Feb-26 18:33N 68°58' E 033°03'0 0.0
2017-Feb-26 17:33N 68°58' E 033°03'0 0.0
2017-Feb-26 16:33N 68°58' E 033°03'0 0.0
2017-Feb-26 15:33N 68°58' E 033°03'0 0.0
2017-Feb-26 14:33N 68°58' E 033°03'0 0.0
2017-Feb-26 13:33N 68°58' E 033°03'0 0.0
2017-Feb-26 12:33N 68°58' E 033°03'0 0.0
2017-Feb-26 11:33N 68°58' E 033°03'0 0.0
2017-Feb-26 10:33N 68°58' E 033°03'0 0.0
2017-Feb-26 09:33N 68°58' E 033°03'1 1.4
2017-Feb-26 08:33N 68°60' E 033°02'0 0.1
2017-Feb-26 07:30N 68°60' E 033°02'0 0.0
2017-Feb-26 06:33N 68°60' E 033°02'0 0.0
2017-Feb-26 05:33N 68°60' E 033°02'0 0.0
2017-Feb-26 04:33N 68°60' E 033°02'0 0.0
2017-Feb-26 03:33N 68°60' E 033°02'0 0.0
2017-Feb-26 02:33N 68°60' E 033°02'0 0.0
2017-Feb-26 01:33N 68°60' E 033°02'0 0.0
2017-Feb-26 00:33N 68°60' E 033°02'0 0.0
2017-Feb-25 23:33N 68°60' E 033°02'0 0.0
2017-Feb-25 22:33N 68°60' E 033°02'0 0.0
2017-Feb-25 21:33N 68°60' E 033°02'0 0.0
2017-Feb-25 20:33N 68°60' E 033°02'0 0.0
2017-Feb-25 19:33N 68°60' E 033°02'0 0.0
2017-Feb-25 18:33N 68°60' E 033°02'0 0.0
2017-Feb-25 17:27N 68°60' E 033°02'0 0.0
2017-Feb-25 16:33N 68°60' E 033°02'0 0.1
2017-Feb-25 15:33N 68°60' E 033°02'0 0.1
2017-Feb-25 14:33N 68°60' E 033°02'0 0.0
2017-Feb-25 13:33N 68°60' E 033°02'0 0.0
2017-Feb-25 12:33N 68°60' E 033°02'0 0.0
2017-Feb-25 11:33N 68°60' E 033°02'0 0.0
2017-Feb-25 10:33N 68°60' E 033°02'0 0.0
2017-Feb-25 09:30N 68°60' E 033°02'0 0.0
2017-Feb-25 08:33N 68°60' E 033°02'0 0.0
2017-Feb-25 07:33N 68°60' E 033°02'0 0.0
2017-Feb-25 06:33N 68°60' E 033°02'0 0.0
2017-Feb-25 05:33N 68°60' E 033°02'0 0.0
2017-Feb-25 04:33N 68°60' E 033°02'0 0.0
2017-Feb-25 03:33N 68°60' E 033°02'0 0.0
2017-Feb-25 02:33N 68°60' E 033°02'0 0.0
2017-Feb-25 01:33N 68°60' E 033°02'0 0.0
2017-Feb-25 00:33N 68°60' E 033°02'0 0.0
2017-Feb-24 23:33N 68°60' E 033°02'0 0.0
2017-Feb-24 22:33N 68°60' E 033°02'0 0.0
2017-Feb-24 21:33N 68°60' E 033°02'0 0.4
2017-Feb-24 20:34N 69°00' E 033°02'132 6.3
2017-Feb-23 23:33N 71°01' E 030°30'10 9.8
2017-Feb-23 22:33N 71°07' E 030°06'1110.7
2017-Feb-23 21:33N 71°13' E 029°40'1010.0
2017-Feb-23 20:32N 71°19' E 029°14'  
2017-Feb-18 05:31N 52°60' E 002°43'56 9.3
2017-Feb-17 23:28N 52°10' E 003°27'1011.3
2017-Feb-17 22:33N 52°06' E 003°42'9 9.4
2017-Feb-17 21:34N 52°02' E 003°56'9 9.1
2017-Feb-17 20:33N 51°57' E 004°09'0 0.0
2017-Feb-17 19:33N 51°57' E 004°09'0 0.0
2017-Feb-17 18:33N 51°57' E 004°09'0 0.0
2017-Feb-17 17:33N 51°57' E 004°09'0 0.0
2017-Feb-17 16:33N 51°57' E 004°09'0 0.0
2017-Feb-17 15:33N 51°57' E 004°09'0 0.0
2017-Feb-17 14:33N 51°57' E 004°09'0 0.0
2017-Feb-17 13:33N 51°57' E 004°09'0 0.0
2017-Feb-17 12:34N 51°57' E 004°09'7 7.0
2017-Feb-17 11:34N 51°59' E 003°58'6 5.8
2017-Feb-17 10:34N 51°58' E 003°49'1 1.2
2017-Feb-17 09:32N 51°56' E 003°49'0 0.1
2017-Feb-17 08:31N 51°56' E 003°49'4 4.4
2017-Feb-17 07:33N 51°58' E 003°42'  
Track history (hours):
 
Tides and Currents Weather Stations Pressure Air Temp Water Temp Dewpoint Dewpoint Depression Visibility Wind Speed Wind Dir Waves Ship Positions

Cfl Performer

Last reported at 2017-Feb-27 06:33 UTC. Time now 2017-Feb-27 06:51 UTC.
Position N 68°58' E 033°03'.

Length 117 m; draft 6.1 m.

Type: Cargo ship. MMSI: 244989000.

Date/timePositionNaut miles runAvg speedWind from/ knotsBaromVisibWave heightAir tempDewpointWater temp
2017-Feb-27 06:33N 68°58' E 033°03'0 0.0
2017-Feb-27 05:33N 68°58' E 033°03'0 0.0
2017-Feb-27 04:33N 68°58' E 033°03'0 0.0
2017-Feb-27 03:33N 68°58' E 033°03'0 0.0
2017-Feb-27 02:33N 68°58' E 033°03'0 0.0
2017-Feb-27 01:33N 68°58' E 033°03'0 0.0
2017-Feb-27 00:33N 68°58' E 033°03'0 0.0
2017-Feb-26 23:33N 68°58' E 033°03'0 0.0
2017-Feb-26 22:33N 68°58' E 033°03'0 0.0
2017-Feb-26 21:33N 68°58' E 033°03'0 0.0
2017-Feb-26 20:33N 68°58' E 033°03'0 0.0
2017-Feb-26 19:33N 68°58' E 033°03'0 0.0
2017-Feb-26 18:33N 68°58' E 033°03'0 0.0
2017-Feb-26 17:33N 68°58' E 033°03'0 0.0
2017-Feb-26 16:33N 68°58' E 033°03'0 0.0
2017-Feb-26 15:33N 68°58' E 033°03'0 0.0
2017-Feb-26 14:33N 68°58' E 033°03'0 0.0
2017-Feb-26 13:33N 68°58' E 033°03'0 0.0
2017-Feb-26 12:33N 68°58' E 033°03'0 0.0
2017-Feb-26 11:33N 68°58' E 033°03'0 0.0
2017-Feb-26 10:33N 68°58' E 033°03'0 0.0
2017-Feb-26 09:33N 68°58' E 033°03'1 1.4
2017-Feb-26 08:33N 68°60' E 033°02'0 0.1
2017-Feb-26 07:30N 68°60' E 033°02'0 0.0
2017-Feb-26 06:33N 68°60' E 033°02'0 0.0
2017-Feb-26 05:33N 68°60' E 033°02'0 0.0
2017-Feb-26 04:33N 68°60' E 033°02'0 0.0
2017-Feb-26 03:33N 68°60' E 033°02'0 0.0
2017-Feb-26 02:33N 68°60' E 033°02'0 0.0
2017-Feb-26 01:33N 68°60' E 033°02'0 0.0
2017-Feb-26 00:33N 68°60' E 033°02'0 0.0
2017-Feb-25 23:33N 68°60' E 033°02'0 0.0
2017-Feb-25 22:33N 68°60' E 033°02'0 0.0
2017-Feb-25 21:33N 68°60' E 033°02'0 0.0
2017-Feb-25 20:33N 68°60' E 033°02'0 0.0
2017-Feb-25 19:33N 68°60' E 033°02'0 0.0
2017-Feb-25 18:33N 68°60' E 033°02'0 0.0
2017-Feb-25 17:27N 68°60' E 033°02'0 0.0
2017-Feb-25 16:33N 68°60' E 033°02'0 0.1
2017-Feb-25 15:33N 68°60' E 033°02'0 0.1
2017-Feb-25 14:33N 68°60' E 033°02'0 0.0
2017-Feb-25 13:33N 68°60' E 033°02'0 0.0
2017-Feb-25 12:33N 68°60' E 033°02'0 0.0
2017-Feb-25 11:33N 68°60' E 033°02'0 0.0
2017-Feb-25 10:33N 68°60' E 033°02'0 0.0
2017-Feb-25 09:30N 68°60' E 033°02'0 0.0
2017-Feb-25 08:33N 68°60' E 033°02'0 0.0
2017-Feb-25 07:33N 68°60' E 033°02'0 0.0
2017-Feb-25 06:33N 68°60' E 033°02'0 0.0
2017-Feb-25 05:33N 68°60' E 033°02'0 0.0
2017-Feb-25 04:33N 68°60' E 033°02'0 0.0
2017-Feb-25 03:33N 68°60' E 033°02'0 0.0
2017-Feb-25 02:33N 68°60' E 033°02'0 0.0
2017-Feb-25 01:33N 68°60' E 033°02'0 0.0
2017-Feb-25 00:33N 68°60' E 033°02'0 0.0
2017-Feb-24 23:33N 68°60' E 033°02'0 0.0
2017-Feb-24 22:33N 68°60' E 033°02'0 0.0
2017-Feb-24 21:33N 68°60' E 033°02'0 0.4
2017-Feb-24 20:34N 69°00' E 033°02'132 6.3
2017-Feb-23 23:33N 71°01' E 030°30'10 9.8
2017-Feb-23 22:33N 71°07' E 030°06'1110.7
2017-Feb-23 21:33N 71°13' E 029°40'1010.0
2017-Feb-23 20:32N 71°19' E 029°14'  
2017-Feb-18 05:31N 52°60' E 002°43'56 9.3
2017-Feb-17 23:28N 52°10' E 003°27'1011.3
2017-Feb-17 22:33N 52°06' E 003°42'9 9.4
2017-Feb-17 21:34N 52°02' E 003°56'9 9.1
2017-Feb-17 20:33N 51°57' E 004°09'0 0.0
2017-Feb-17 19:33N 51°57' E 004°09'0 0.0
2017-Feb-17 18:33N 51°57' E 004°09'0 0.0
2017-Feb-17 17:33N 51°57' E 004°09'0 0.0
2017-Feb-17 16:33N 51°57' E 004°09'0 0.0
2017-Feb-17 15:33N 51°57' E 004°09'0 0.0
2017-Feb-17 14:33N 51°57' E 004°09'0 0.0
2017-Feb-17 13:33N 51°57' E 004°09'0 0.0
2017-Feb-17 12:34N 51°57' E 004°09'7 7.0
2017-Feb-17 11:34N 51°59' E 003°58'6 5.8
2017-Feb-17 10:34N 51°58' E 003°49'1 1.2
2017-Feb-17 09:32N 51°56' E 003°49'0 0.1
2017-Feb-17 08:31N 51°56' E 003°49'4 4.4
2017-Feb-17 07:33N 51°58' E 003°42'  

Dump ship's entire track history